createdAt,value
2019-02-25T00:00:56.132Z,4.20
2019-02-25T00:03:25.458Z,4.20
2019-02-25T00:05:52.884Z,4.20
2019-02-25T00:08:20.118Z,4.20
2019-02-25T00:10:47.562Z,4.20
2019-02-25T00:13:14.801Z,4.20
2019-02-25T00:15:42.218Z,4.20
2019-02-25T00:18:09.585Z,4.30
2019-02-25T00:20:36.999Z,4.20
2019-02-25T00:23:04.387Z,4.20
2019-02-25T00:25:31.761Z,4.10
2019-02-25T00:27:59.175Z,4.00
2019-02-25T00:30:26.606Z,4.00
2019-02-25T00:32:54.002Z,4.10
2019-02-25T00:35:21.345Z,4.10
2019-02-25T00:37:49.795Z,4.10
2019-02-25T00:40:17.207Z,4.20
2019-02-25T00:42:44.607Z,4.30
2019-02-25T00:45:11.967Z,4.50
2019-02-25T00:47:39.418Z,4.60
2019-02-25T00:50:08.652Z,4.70
2019-02-25T00:52:36.050Z,4.80
2019-02-25T00:55:04.178Z,4.90
2019-02-25T00:57:31.515Z,5.00
2019-02-25T00:59:58.800Z,5.00
2019-02-25T01:02:26.168Z,5.00
2019-02-25T01:04:53.563Z,4.90
2019-02-25T01:07:20.913Z,4.80
2019-02-25T01:09:48.523Z,4.80
2019-02-25T01:12:15.959Z,4.90
2019-02-25T01:14:43.252Z,4.80
2019-02-25T01:17:11.695Z,4.80
2019-02-25T01:19:39.244Z,4.80
2019-02-25T01:22:06.526Z,4.80
2019-02-25T01:24:33.935Z,4.80
2019-02-25T01:27:01.354Z,4.70
2019-02-25T01:29:28.793Z,4.70
2019-02-25T01:31:56.297Z,4.60
2019-02-25T01:34:23.739Z,4.60
2019-02-25T01:36:51.101Z,4.60
2019-02-25T01:39:18.541Z,4.60
2019-02-25T01:41:45.967Z,4.60
2019-02-25T01:44:13.338Z,4.60
2019-02-25T01:46:40.853Z,4.60
2019-02-25T01:49:08.298Z,4.60
2019-02-25T01:51:35.698Z,4.60
2019-02-25T01:54:03.086Z,4.50
2019-02-25T01:56:30.475Z,4.40
2019-02-25T01:58:57.985Z,4.40
2019-02-25T02:01:25.351Z,4.40
2019-02-25T02:03:52.767Z,4.30
2019-02-25T02:06:20.133Z,4.30
2019-02-25T02:08:47.595Z,4.20
2019-02-25T02:11:14.959Z,4.20
2019-02-25T02:13:42.186Z,4.20
2019-02-25T02:16:09.565Z,4.30
2019-02-25T02:18:36.963Z,4.30
2019-02-25T02:21:04.433Z,4.30
2019-02-25T02:23:31.869Z,4.30
2019-02-25T02:25:59.365Z,4.30
2019-02-25T02:28:26.852Z,4.40
2019-02-25T02:30:54.243Z,4.40
2019-02-25T02:33:21.627Z,4.40
2019-02-25T02:35:49.054Z,4.30
2019-02-25T02:38:16.499Z,4.30
2019-02-25T02:40:44.035Z,4.30
2019-02-25T02:43:11.508Z,4.30
2019-02-25T02:45:46.225Z,4.30
2019-02-25T02:48:38.796Z,4.30
2019-02-25T02:51:06.203Z,4.30
2019-02-25T02:53:33.618Z,4.20
2019-02-25T02:56:00.970Z,4.20
2019-02-25T02:58:28.465Z,4.20
2019-02-25T03:00:56.891Z,4.20
2019-02-25T03:03:24.182Z,4.10
2019-02-25T03:05:51.498Z,4.10
2019-02-25T03:08:18.899Z,4.00
2019-02-25T03:10:46.169Z,4.00
2019-02-25T03:13:13.579Z,3.90
2019-02-25T03:15:41.039Z,3.80
2019-02-25T03:18:08.384Z,3.60
2019-02-25T03:20:35.807Z,3.50
2019-02-25T03:23:03.193Z,3.40
2019-02-25T03:25:30.586Z,3.30
2019-02-25T03:27:57.977Z,3.20
2019-02-25T03:30:25.350Z,3.20
2019-02-25T03:32:52.872Z,3.20
2019-02-25T03:35:20.427Z,3.10
2019-02-25T03:37:47.818Z,3.10
2019-02-25T03:40:16.829Z,3.10
2019-02-25T03:42:44.283Z,3.00
2019-02-25T03:45:13.128Z,3.00
2019-02-25T03:47:40.547Z,3.00
2019-02-25T03:50:07.892Z,2.90
2019-02-25T03:52:35.303Z,2.80
2019-02-25T03:55:03.373Z,2.80
2019-02-25T03:57:30.769Z,2.80
2019-02-25T03:59:58.085Z,2.70
2019-02-25T04:02:25.467Z,2.70
2019-02-25T04:04:52.832Z,2.70
2019-02-25T04:07:20.178Z,2.60
2019-02-25T04:09:47.510Z,2.60
2019-02-25T04:12:14.999Z,2.60
2019-02-25T04:14:42.422Z,2.50
2019-02-25T04:17:09.855Z,2.50
2019-02-25T04:19:37.233Z,2.40
2019-02-25T04:22:04.692Z,2.40
2019-02-25T04:24:32.074Z,2.40
2019-02-25T04:26:59.518Z,2.40
2019-02-25T04:29:26.783Z,2.40
2019-02-25T04:31:54.200Z,2.30
2019-02-25T04:34:21.569Z,2.30
2019-02-25T04:36:48.922Z,2.20
2019-02-25T04:39:16.362Z,2.20
2019-02-25T04:41:43.801Z,2.20
2019-02-25T04:44:11.179Z,2.10
2019-02-25T04:46:38.592Z,2.10
2019-02-25T04:49:06.021Z,2.10
2019-02-25T04:51:33.347Z,2.00
2019-02-25T04:54:00.763Z,2.00
2019-02-25T04:56:28.129Z,2.00
2019-02-25T04:58:55.584Z,1.90
2019-02-25T05:01:22.875Z,2.00
2019-02-25T05:03:50.216Z,1.90
2019-02-25T05:06:17.629Z,1.90
2019-02-25T05:08:44.961Z,1.90
2019-02-25T05:11:12.381Z,1.90
2019-02-25T05:13:39.829Z,1.90
2019-02-25T05:16:07.178Z,1.80
2019-02-25T05:18:34.583Z,1.70
2019-02-25T05:21:01.966Z,1.70
2019-02-25T05:23:29.244Z,1.60
2019-02-25T05:25:56.645Z,1.60
2019-02-25T05:28:24.058Z,1.60
2019-02-25T05:30:51.553Z,1.60
2019-02-25T05:33:18.947Z,1.60
2019-02-25T05:35:46.479Z,1.70
2019-02-25T05:38:13.852Z,1.70
2019-02-25T05:40:41.243Z,1.80
2019-02-25T05:43:08.755Z,1.90
2019-02-25T05:45:36.220Z,2.00
2019-02-25T05:48:03.547Z,1.90
2019-02-25T05:50:30.875Z,1.80
2019-02-25T05:52:58.252Z,1.70
2019-02-25T05:55:25.615Z,1.60
2019-02-25T05:57:52.999Z,1.60
2019-02-25T06:00:22.517Z,1.60
2019-02-25T06:02:49.932Z,1.60
2019-02-25T06:05:17.369Z,1.60
2019-02-25T06:07:44.699Z,1.60
2019-02-25T06:10:12.232Z,1.60
2019-02-25T06:12:40.683Z,1.60
2019-02-25T06:15:08.911Z,1.60
2019-02-25T06:17:36.293Z,1.60
2019-02-25T06:20:04.641Z,1.60
2019-02-25T06:22:31.925Z,1.40
2019-02-25T06:24:59.306Z,1.30
2019-02-25T06:27:30.631Z,1.30
2019-02-25T06:29:55.787Z,1.20
2019-02-25T06:32:23.142Z,1.20
2019-02-25T06:34:50.502Z,1.10
2019-02-25T06:37:17.806Z,1.10
2019-02-25T06:39:45.210Z,1.10
2019-02-25T06:42:12.534Z,1.10
2019-02-25T06:44:40.006Z,1.20
2019-02-25T06:47:07.325Z,1.20
2019-02-25T06:49:34.634Z,1.10
2019-02-25T06:52:01.985Z,1.00
2019-02-25T06:54:29.393Z,1.00
2019-02-25T06:56:56.726Z,1.00
2019-02-25T06:59:25.367Z,1.00
2019-02-25T07:01:52.817Z,1.10
2019-02-25T07:04:31.129Z,1.10
2019-02-25T07:07:17.999Z,1.10
2019-02-25T07:09:59.754Z,1.10
2019-02-25T07:12:38.512Z,1.00
2019-02-25T07:15:25.787Z,1.10
2019-02-25T07:18:21.808Z,1.10
2019-02-25T07:20:59.090Z,1.20
2019-02-25T07:23:44.636Z,1.20
2019-02-25T07:26:22.468Z,1.30
2019-02-25T07:29:15.129Z,1.30
2019-02-25T07:32:09.193Z,1.40
2019-02-25T07:35:14.086Z,1.50
2019-02-25T07:37:59.881Z,1.60
2019-02-25T07:40:41.130Z,1.60
2019-02-25T07:43:26.235Z,1.80
2019-02-25T07:46:03.474Z,1.90
2019-02-25T07:48:42.526Z,2.00
2019-02-25T07:51:39.475Z,2.20
2019-02-25T07:54:13.068Z,2.30
2019-02-25T07:56:57.556Z,2.50
2019-02-25T07:59:42.633Z,2.60
2019-02-25T08:02:29.679Z,2.80
2019-02-25T08:05:03.650Z,3.00
2019-02-25T08:07:49.679Z,3.20
2019-02-25T08:10:32.742Z,3.30
2019-02-25T08:13:20.167Z,3.50
2019-02-25T08:16:03.174Z,3.70
2019-02-25T08:18:43.380Z,3.90
2019-02-25T08:21:23.219Z,4.00
2019-02-25T08:24:11.049Z,4.10
2019-02-25T08:26:49.642Z,4.20
2019-02-25T08:33:06.108Z,4.50
2019-02-25T08:36:47.078Z,4.60
2019-02-25T08:39:21.722Z,4.80
2019-02-25T08:41:57.818Z,5.00
2019-02-25T08:44:33.763Z,5.20
2019-02-25T08:47:10.172Z,5.40
2019-02-25T08:49:46.373Z,5.60
2019-02-25T08:52:14.041Z,5.70
2019-02-25T08:54:41.423Z,5.90
2019-02-25T08:57:08.861Z,6.00
2019-02-25T08:59:36.352Z,6.20
2019-02-25T09:02:03.924Z,6.30
2019-02-25T09:04:32.513Z,6.50
2019-02-25T09:06:59.930Z,6.60
2019-02-25T09:09:27.411Z,6.70
2019-02-25T09:11:54.802Z,6.90
2019-02-25T09:14:22.114Z,6.90
2019-02-25T09:16:50.618Z,7.00
2019-02-25T09:19:18.041Z,7.10
2019-02-25T09:21:45.531Z,7.30
2019-02-25T09:24:13.002Z,7.40
2019-02-25T09:26:40.474Z,7.50
2019-02-25T09:29:09.234Z,7.60
2019-02-25T09:31:36.648Z,7.70
2019-02-25T09:34:04.115Z,7.80
2019-02-25T09:36:31.576Z,7.90
2019-02-25T09:38:58.954Z,8.00
2019-02-25T09:41:29.821Z,8.10
2019-02-25T09:43:55.611Z,8.30
2019-02-25T09:46:22.983Z,8.40
2019-02-25T09:48:50.423Z,8.60
2019-02-25T09:51:17.681Z,8.70
2019-02-25T09:53:45.087Z,8.70
2019-02-25T09:56:12.612Z,8.90
2019-02-25T09:58:40.001Z,8.90
2019-02-25T10:01:08.118Z,9.10
2019-02-25T10:03:35.551Z,9.10
2019-02-25T10:06:02.930Z,9.20
2019-02-25T10:08:30.231Z,9.30
2019-02-25T10:10:57.632Z,9.40
2019-02-25T10:13:24.986Z,9.50
2019-02-25T10:15:52.354Z,9.50
2019-02-25T10:18:19.639Z,9.50
2019-02-25T10:20:48.142Z,9.70
2019-02-25T10:23:15.562Z,9.90
2019-02-25T10:25:43.146Z,10.00
2019-02-25T10:28:10.555Z,10.10
2019-02-25T10:30:37.968Z,10.20
2019-02-25T10:33:05.470Z,10.30
2019-02-25T10:35:32.736Z,10.50
2019-02-25T10:38:01.133Z,10.50
2019-02-25T10:40:29.455Z,10.60
2019-02-25T10:42:56.810Z,10.60
2019-02-25T10:45:24.161Z,10.70
2019-02-25T10:47:54.398Z,10.80
2019-02-25T10:50:22.111Z,11.00
2019-02-25T10:52:49.681Z,11.10
2019-02-25T10:55:30.158Z,11.30
2019-02-25T10:57:59.777Z,11.40
2019-02-25T11:00:26.986Z,11.60
2019-02-25T11:02:56.436Z,11.80
2019-02-25T11:05:27.283Z,11.90
2019-02-25T11:07:53.401Z,12.20
2019-02-25T11:10:29.121Z,12.30
2019-02-25T11:12:57.709Z,12.60
2019-02-25T11:15:26.322Z,12.90
2019-02-25T11:17:55.915Z,13.20
2019-02-25T11:20:23.119Z,13.40
2019-02-25T11:22:50.865Z,13.60
2019-02-25T11:25:19.396Z,13.80
2019-02-25T11:27:47.761Z,13.90
2019-02-25T11:30:16.574Z,13.90
2019-02-25T11:32:44.698Z,14.00
2019-02-25T11:35:13.043Z,14.00
2019-02-25T11:37:40.580Z,14.00
2019-02-25T11:40:08.994Z,14.00
2019-02-25T11:42:36.380Z,16.40
2019-02-25T11:45:04.995Z,19.20
2019-02-25T11:47:32.544Z,20.90
2019-02-25T11:49:59.973Z,22.50
2019-02-25T11:52:27.414Z,23.30
2019-02-25T11:54:54.836Z,23.30
2019-02-25T11:57:22.185Z,23.00
2019-02-25T11:59:49.917Z,22.40
2019-02-25T12:02:25.163Z,22.20
2019-02-25T12:04:48.423Z,21.40
2019-02-25T12:07:16.627Z,20.20
2019-02-25T12:09:44.055Z,18.80
2019-02-25T12:12:11.747Z,18.10
2019-02-25T12:14:39.143Z,18.60
2019-02-25T12:17:06.596Z,20.40
2019-02-25T12:19:33.987Z,21.90
2019-02-25T12:22:01.450Z,22.40
2019-02-25T12:24:28.949Z,23.20
2019-02-25T12:26:56.306Z,24.50
2019-02-25T12:29:23.774Z,24.40
2019-02-25T12:31:51.151Z,23.70
2019-02-25T12:34:18.685Z,24.50
2019-02-25T12:36:46.035Z,24.80
2019-02-25T12:39:13.475Z,24.20
2019-02-25T12:41:40.858Z,23.70
2019-02-25T12:44:08.235Z,23.40
2019-02-25T12:46:35.675Z,23.90
2019-02-25T12:49:03.073Z,24.70
2019-02-25T12:51:31.706Z,24.20
2019-02-25T12:53:59.575Z,23.30
2019-02-25T12:56:27.307Z,23.60
2019-02-25T12:58:55.327Z,23.70
2019-02-25T13:01:22.921Z,23.80
2019-02-25T13:03:50.473Z,23.00
2019-02-25T13:06:18.034Z,21.50
2019-02-25T13:08:45.638Z,20.30
2019-02-25T13:11:13.350Z,19.30
2019-02-25T13:13:40.931Z,19.30
2019-02-25T13:16:08.699Z,20.10
2019-02-25T13:18:36.188Z,20.60
2019-02-25T13:21:03.566Z,20.30
2019-02-25T13:23:31.078Z,20.60
2019-02-25T13:26:07.252Z,21.40
2019-02-25T13:28:28.591Z,21.90
2019-02-25T13:30:58.845Z,22.30
2019-02-25T13:33:26.931Z,22.50
2019-02-25T13:35:54.692Z,22.20
2019-02-25T13:38:22.687Z,21.20
2019-02-25T13:40:51.231Z,19.80
2019-02-25T13:43:18.561Z,18.90
2019-02-25T13:45:46.032Z,18.50
2019-02-25T13:48:14.700Z,18.10
2019-02-25T13:50:42.380Z,17.90
2019-02-25T13:53:09.734Z,17.90
2019-02-25T13:55:37.359Z,18.50
2019-02-25T13:58:05.231Z,19.70
2019-02-25T14:00:32.704Z,20.60
2019-02-25T14:03:00.315Z,20.80
2019-02-25T14:05:27.749Z,20.70
2019-02-25T14:07:55.110Z,19.70
2019-02-25T14:10:22.645Z,18.80
2019-02-25T14:12:50.114Z,18.00
2019-02-25T14:15:17.934Z,17.30
2019-02-25T14:17:45.421Z,16.80
2019-02-25T14:20:15.151Z,16.50
2019-02-25T14:22:44.611Z,16.20
2019-02-25T14:25:12.711Z,15.90
2019-02-25T14:27:40.250Z,15.80
2019-02-25T14:30:11.813Z,15.80
2019-02-25T14:32:39.384Z,15.70
2019-02-25T14:35:07.858Z,15.50
2019-02-25T14:37:35.629Z,15.40
2019-02-25T14:40:05.627Z,15.40
2019-02-25T14:42:33.705Z,15.30
2019-02-25T14:45:04.594Z,15.30
2019-02-25T14:47:36.824Z,15.30
2019-02-25T14:50:01.379Z,15.20
2019-02-25T14:52:29.289Z,15.10
2019-02-25T14:54:58.231Z,15.10
2019-02-25T14:57:26.886Z,15.00
2019-02-25T14:59:54.851Z,14.90
2019-02-25T15:02:22.287Z,14.90
2019-02-25T15:04:49.725Z,14.90
2019-02-25T15:19:56.740Z,14.90
2019-02-25T15:22:27.914Z,14.80
2019-02-25T15:24:54.623Z,14.70
2019-02-25T18:03:08.262Z,11.30
